sensor_id;sensor_type;location;lat;lon;timestamp;P1;durP1;ratioP1;P2;durP2;ratioP2
38879;SDS011;25887;30.194;-97.880;2023-05-23T00:01:11;8.65;;;4.95;;
38879;SDS011;25887;30.194;-97.880;2023-05-23T00:03:40;11.75;;;5.57;;
38879;SDS011;25887;30.194;-97.880;2023-05-23T00:06:07;9.07;;;4.78;;
38879;SDS011;25887;30.194;-97.880;2023-05-23T00:08:35;9.10;;;4.95;;
38879;SDS011;25887;30.194;-97.880;2023-05-23T00:11:01;10.88;;;5.57;;
38879;SDS011;25887;30.194;-97.880;2023-05-23T00:13:27;8.73;;;5.28;;
38879;SDS011;25887;30.194;-97.880;2023-05-23T00:15:53;7.18;;;4.63;;
38879;SDS011;25887;30.194;-97.880;2023-05-23T00:18:20;11.55;;;5.30;;
38879;SDS011;25887;30.194;-97.880;2023-05-23T00:20:49;9.05;;;4.60;;
38879;SDS011;25887;30.194;-97.880;2023-05-23T00:23:16;10.98;;;5.50;;
38879;SDS011;25887;30.194;-97.880;2023-05-23T00:25:46;9.90;;;4.63;;
38879;SDS011;25887;30.194;-97.880;2023-05-23T00:28:17;9.82;;;4.68;;
38879;SDS011;25887;30.194;-97.880;2023-05-23T00:30:45;8.80;;;4.63;;
38879;SDS011;25887;30.194;-97.880;2023-05-23T00:33:13;9.02;;;4.82;;
38879;SDS011;25887;30.194;-97.880;2023-05-23T00:35:41;9.73;;;6.18;;
38879;SDS011;25887;30.194;-97.880;2023-05-23T00:38:08;14.73;;;9.68;;
38879;SDS011;25887;30.194;-97.880;2023-05-23T00:40:35;16.45;;;11.95;;
38879;SDS011;25887;30.194;-97.880;2023-05-23T00:43:01;15.23;;;9.32;;
38879;SDS011;25887;30.194;-97.880;2023-05-23T00:45:28;9.73;;;5.70;;
38879;SDS011;25887;30.194;-97.880;2023-05-23T00:47:57;10.05;;;5.07;;
38879;SDS011;25887;30.194;-97.880;2023-05-23T00:50:24;8.93;;;5.30;;
38879;SDS011;25887;30.194;-97.880;2023-05-23T00:52:55;12.00;;;5.25;;
38879;SDS011;25887;30.194;-97.880;2023-05-23T00:55:23;8.90;;;5.32;;
38879;SDS011;25887;30.194;-97.880;2023-05-23T00:57:51;10.88;;;5.72;;
38879;SDS011;25887;30.194;-97.880;2023-05-23T01:00:21;11.52;;;5.50;;
38879;SDS011;25887;30.194;-97.880;2023-05-23T01:02:49;10.40;;;5.53;;
38879;SDS011;25887;30.194;-97.880;2023-05-23T01:05:16;11.50;;;5.18;;
38879;SDS011;25887;30.194;-97.880;2023-05-23T01:07:47;12.45;;;5.43;;
38879;SDS011;25887;30.194;-97.880;2023-05-23T01:10:14;12.43;;;5.75;;
38879;SDS011;25887;30.194;-97.880;2023-05-23T01:15:51;9.13;;;4.78;;
38879;SDS011;25887;30.194;-97.880;2023-05-23T01:21:44;10.77;;;5.13;;
38879;SDS011;25887;30.194;-97.880;2023-05-23T01:29:58;8.63;;;4.93;;
38879;SDS011;25887;30.194;-97.880;2023-05-23T01:32:26;11.50;;;4.80;;
38879;SDS011;25887;30.194;-97.880;2023-05-23T01:34:55;11.63;;;4.78;;
38879;SDS011;25887;30.194;-97.880;2023-05-23T01:37:22;9.43;;;4.88;;
38879;SDS011;25887;30.194;-97.880;2023-05-23T01:39:48;9.57;;;5.10;;
38879;SDS011;25887;30.194;-97.880;2023-05-23T01:42:15;10.57;;;5.40;;
38879;SDS011;25887;30.194;-97.880;2023-05-23T01:44:44;8.68;;;4.95;;
38879;SDS011;25887;30.194;-97.880;2023-05-23T01:47:11;10.63;;;5.03;;
38879;SDS011;25887;30.194;-97.880;2023-05-23T01:49:40;10.35;;;5.18;;
38879;SDS011;25887;30.194;-97.880;2023-05-23T01:52:21;11.02;;;5.15;;
38879;SDS011;25887;30.194;-97.880;2023-05-23T01:54:48;12.80;;;5.07;;
38879;SDS011;25887;30.194;-97.880;2023-05-23T01:57:15;9.40;;;5.00;;
38879;SDS011;25887;30.194;-97.880;2023-05-23T01:59:50;9.30;;;4.93;;
38879;SDS011;25887;30.194;-97.880;2023-05-23T02:02:17;10.82;;;5.60;;
38879;SDS011;25887;30.194;-97.880;2023-05-23T02:04:43;10.30;;;5.53;;
38879;SDS011;25887;30.194;-97.880;2023-05-23T02:07:12;9.75;;;5.10;;
38879;SDS011;25887;30.194;-97.880;2023-05-23T02:09:42;10.13;;;5.20;;
38879;SDS011;25887;30.194;-97.880;2023-05-23T02:12:08;11.32;;;5.57;;
38879;SDS011;25887;30.194;-97.880;2023-05-23T02:14:34;9.68;;;5.43;;
38879;SDS011;25887;30.194;-97.880;2023-05-23T02:17:01;9.98;;;5.18;;
38879;SDS011;25887;30.194;-97.880;2023-05-23T02:19:28;9.88;;;5.03;;
38879;SDS011;25887;30.194;-97.880;2023-05-23T02:21:54;8.55;;;4.82;;
38879;SDS011;25887;30.194;-97.880;2023-05-23T02:24:20;13.15;;;5.50;;
38879;SDS011;25887;30.194;-97.880;2023-05-23T02:26:47;9.65;;;5.35;;
38879;SDS011;25887;30.194;-97.880;2023-05-23T02:29:13;9.63;;;5.40;;
38879;SDS011;25887;30.194;-97.880;2023-05-23T02:31:39;10.07;;;5.53;;
38879;SDS011;25887;30.194;-97.880;2023-05-23T02:34:05;9.77;;;5.28;;
38879;SDS011;25887;30.194;-97.880;2023-05-23T02:36:31;11.15;;;5.55;;
38879;SDS011;25887;30.194;-97.880;2023-05-23T02:38:58;11.95;;;5.60;;
38879;SDS011;25887;30.194;-97.880;2023-05-23T02:41:24;10.35;;;5.57;;
38879;SDS011;25887;30.194;-97.880;2023-05-23T02:43:51;14.38;;;5.57;;
38879;SDS011;25887;30.194;-97.880;2023-05-23T02:46:17;12.35;;;5.88;;
38879;SDS011;25887;30.194;-97.880;2023-05-23T02:48:43;13.30;;;5.90;;
38879;SDS011;25887;30.194;-97.880;2023-05-23T02:51:09;9.38;;;5.70;;
38879;SDS011;25887;30.194;-97.880;2023-05-23T02:53:37;11.93;;;5.95;;
38879;SDS011;25887;30.194;-97.880;2023-05-23T02:56:04;12.30;;;5.95;;
38879;SDS011;25887;30.194;-97.880;2023-05-23T02:58:33;11.55;;;6.38;;
38879;SDS011;25887;30.194;-97.880;2023-05-23T03:01:02;10.13;;;5.68;;
38879;SDS011;25887;30.194;-97.880;2023-05-23T03:03:28;9.63;;;5.57;;
38879;SDS011;25887;30.194;-97.880;2023-05-23T03:05:57;9.52;;;5.13;;
38879;SDS011;25887;30.194;-97.880;2023-05-23T03:08:24;8.95;;;5.80;;
38879;SDS011;25887;30.194;-97.880;2023-05-23T03:10:50;10.52;;;5.75;;
38879;SDS011;25887;30.194;-97.880;2023-05-23T03:13:17;10.95;;;6.10;;
38879;SDS011;25887;30.194;-97.880;2023-05-23T03:15:43;10.95;;;5.97;;
38879;SDS011;25887;30.194;-97.880;2023-05-23T03:18:10;11.15;;;5.13;;
38879;SDS011;25887;30.194;-97.880;2023-05-23T03:20:38;10.60;;;6.03;;
38879;SDS011;25887;30.194;-97.880;2023-05-23T03:23:04;9.73;;;5.32;;
38879;SDS011;25887;30.194;-97.880;2023-05-23T03:25:30;9.75;;;5.22;;
38879;SDS011;25887;30.194;-97.880;2023-05-23T03:27:57;11.77;;;6.40;;
38879;SDS011;25887;30.194;-97.880;2023-05-23T03:30:23;11.02;;;5.20;;
38879;SDS011;25887;30.194;-97.880;2023-05-23T03:32:49;12.70;;;5.35;;
38879;SDS011;25887;30.194;-97.880;2023-05-23T03:35:15;14.73;;;5.70;;
38879;SDS011;25887;30.194;-97.880;2023-05-23T03:37:41;11.30;;;5.57;;
38879;SDS011;25887;30.194;-97.880;2023-05-23T03:40:08;14.70;;;5.65;;
38879;SDS011;25887;30.194;-97.880;2023-05-23T03:42:35;14.38;;;6.05;;
38879;SDS011;25887;30.194;-97.880;2023-05-23T03:45:01;9.43;;;5.45;;
38879;SDS011;25887;30.194;-97.880;2023-05-23T03:47:27;10.45;;;5.43;;
38879;SDS011;25887;30.194;-97.880;2023-05-23T03:49:54;10.65;;;5.68;;
38879;SDS011;25887;30.194;-97.880;2023-05-23T03:52:20;11.10;;;5.97;;
38879;SDS011;25887;30.194;-97.880;2023-05-23T03:54:46;12.07;;;5.18;;
38879;SDS011;25887;30.194;-97.880;2023-05-23T03:57:12;11.00;;;5.88;;
38879;SDS011;25887;30.194;-97.880;2023-05-23T03:59:38;12.55;;;6.18;;
38879;SDS011;25887;30.194;-97.880;2023-05-23T04:02:04;15.02;;;5.78;;
38879;SDS011;25887;30.194;-97.880;2023-05-23T04:04:31;12.98;;;5.75;;
38879;SDS011;25887;30.194;-97.880;2023-05-23T04:06:57;10.77;;;6.10;;
38879;SDS011;25887;30.194;-97.880;2023-05-23T04:09:24;11.00;;;5.85;;
38879;SDS011;25887;30.194;-97.880;2023-05-23T04:14:57;11.48;;;6.28;;
38879;SDS011;25887;30.194;-97.880;2023-05-23T04:17:23;11.25;;;6.03;;
38879;SDS011;25887;30.194;-97.880;2023-05-23T04:19:55;15.65;;;6.10;;
38879;SDS011;25887;30.194;-97.880;2023-05-23T04:25:14;11.40;;;6.22;;
38879;SDS011;25887;30.194;-97.880;2023-05-23T04:27:43;10.93;;;6.20;;
38879;SDS011;25887;30.194;-97.880;2023-05-23T04:30:09;12.60;;;6.85;;
38879;SDS011;25887;30.194;-97.880;2023-05-23T04:32:36;14.95;;;6.35;;
38879;SDS011;25887;30.194;-97.880;2023-05-23T04:35:02;8.38;;;5.50;;
38879;SDS011;25887;30.194;-97.880;2023-05-23T04:37:29;16.88;;;6.55;;
38879;SDS011;25887;30.194;-97.880;2023-05-23T04:39:57;12.82;;;6.25;;
38879;SDS011;25887;30.194;-97.880;2023-05-23T04:42:26;12.98;;;5.95;;
38879;SDS011;25887;30.194;-97.880;2023-05-23T04:44:53;12.45;;;6.40;;
38879;SDS011;25887;30.194;-97.880;2023-05-23T04:47:22;15.57;;;5.95;;
38879;SDS011;25887;30.194;-97.880;2023-05-23T04:49:53;13.70;;;6.40;;
38879;SDS011;25887;30.194;-97.880;2023-05-23T04:52:21;11.40;;;6.22;;
38879;SDS011;25887;30.194;-97.880;2023-05-23T04:54:47;10.77;;;6.47;;
38879;SDS011;25887;30.194;-97.880;2023-05-23T04:57:14;11.32;;;6.57;;
38879;SDS011;25887;30.194;-97.880;2023-05-23T04:59:40;13.05;;;5.90;;
38879;SDS011;25887;30.194;-97.880;2023-05-23T05:02:07;16.77;;;6.38;;
38879;SDS011;25887;30.194;-97.880;2023-05-23T05:04:33;10.57;;;5.78;;
38879;SDS011;25887;30.194;-97.880;2023-05-23T05:07:00;13.45;;;5.68;;
38879;SDS011;25887;30.194;-97.880;2023-05-23T05:09:29;12.85;;;5.70;;
38879;SDS011;25887;30.194;-97.880;2023-05-23T05:12:15;10.48;;;5.72;;
38879;SDS011;25887;30.194;-97.880;2023-05-23T05:14:41;12.52;;;6.35;;
38879;SDS011;25887;30.194;-97.880;2023-05-23T05:17:07;11.70;;;5.18;;
38879;SDS011;25887;30.194;-97.880;2023-05-23T05:19:33;14.52;;;6.30;;
38879;SDS011;25887;30.194;-97.880;2023-05-23T05:22:00;12.48;;;6.30;;
38879;SDS011;25887;30.194;-97.880;2023-05-23T05:24:27;9.70;;;5.15;;
38879;SDS011;25887;30.194;-97.880;2023-05-23T05:26:53;10.93;;;5.53;;
38879;SDS011;25887;30.194;-97.880;2023-05-23T05:29:20;16.25;;;6.90;;
38879;SDS011;25887;30.194;-97.880;2023-05-23T05:31:47;12.57;;;5.32;;
38879;SDS011;25887;30.194;-97.880;2023-05-23T05:34:17;12.13;;;6.07;;
38879;SDS011;25887;30.194;-97.880;2023-05-23T05:36:43;12.05;;;6.32;;
38879;SDS011;25887;30.194;-97.880;2023-05-23T05:39:12;12.18;;;6.30;;
38879;SDS011;25887;30.194;-97.880;2023-05-23T05:41:39;10.90;;;5.57;;
38879;SDS011;25887;30.194;-97.880;2023-05-23T05:44:06;10.45;;;5.32;;
38879;SDS011;25887;30.194;-97.880;2023-05-23T05:46:33;14.15;;;6.22;;
38879;SDS011;25887;30.194;-97.880;2023-05-23T05:48:59;10.63;;;6.20;;
38879;SDS011;25887;30.194;-97.880;2023-05-23T05:51:26;9.50;;;5.38;;
38879;SDS011;25887;30.194;-97.880;2023-05-23T05:53:52;13.77;;;6.85;;
38879;SDS011;25887;30.194;-97.880;2023-05-23T05:56:18;13.32;;;6.00;;
38879;SDS011;25887;30.194;-97.880;2023-05-23T05:58:46;12.70;;;6.13;;
38879;SDS011;25887;30.194;-97.880;2023-05-23T06:01:13;11.50;;;6.40;;
38879;SDS011;25887;30.194;-97.880;2023-05-23T06:03:39;9.02;;;5.30;;
38879;SDS011;25887;30.194;-97.880;2023-05-23T06:06:05;11.20;;;5.72;;
38879;SDS011;25887;30.194;-97.880;2023-05-23T06:09:06;10.13;;;5.50;;
38879;SDS011;25887;30.194;-97.880;2023-05-23T06:11:25;11.30;;;6.63;;
38879;SDS011;25887;30.194;-97.880;2023-05-23T06:13:52;11.07;;;5.32;;
38879;SDS011;25887;30.194;-97.880;2023-05-23T06:16:29;10.68;;;5.72;;
38879;SDS011;25887;30.194;-97.880;2023-05-23T06:22:17;11.98;;;5.75;;
38879;SDS011;25887;30.194;-97.880;2023-05-23T06:24:44;10.65;;;5.38;;
38879;SDS011;25887;30.194;-97.880;2023-05-23T06:27:11;10.75;;;5.43;;
38879;SDS011;25887;30.194;-97.880;2023-05-23T06:29:37;11.45;;;5.30;;
38879;SDS011;25887;30.194;-97.880;2023-05-23T06:32:04;9.40;;;5.25;;
38879;SDS011;25887;30.194;-97.880;2023-05-23T06:34:31;10.15;;;5.65;;
38879;SDS011;25887;30.194;-97.880;2023-05-23T06:36:57;11.23;;;6.10;;
38879;SDS011;25887;30.194;-97.880;2023-05-23T06:39:23;11.27;;;5.72;;
38879;SDS011;25887;30.194;-97.880;2023-05-23T06:41:49;11.85;;;5.70;;
38879;SDS011;25887;30.194;-97.880;2023-05-23T06:44:15;9.18;;;5.78;;
38879;SDS011;25887;30.194;-97.880;2023-05-23T06:46:42;11.32;;;5.70;;
38879;SDS011;25887;30.194;-97.880;2023-05-23T06:49:10;11.75;;;5.90;;
38879;SDS011;25887;30.194;-97.880;2023-05-23T06:51:37;13.15;;;5.88;;
38879;SDS011;25887;30.194;-97.880;2023-05-23T06:54:03;12.52;;;5.70;;
38879;SDS011;25887;30.194;-97.880;2023-05-23T06:56:29;15.45;;;6.38;;
38879;SDS011;25887;30.194;-97.880;2023-05-23T06:58:56;13.27;;;5.60;;
38879;SDS011;25887;30.194;-97.880;2023-05-23T07:01:22;15.30;;;6.70;;
38879;SDS011;25887;30.194;-97.880;2023-05-23T07:03:48;10.15;;;5.72;;
38879;SDS011;25887;30.194;-97.880;2023-05-23T07:06:14;11.38;;;5.68;;
38879;SDS011;25887;30.194;-97.880;2023-05-23T07:08:40;10.68;;;6.07;;
38879;SDS011;25887;30.194;-97.880;2023-05-23T07:11:07;13.23;;;7.00;;
38879;SDS011;25887;30.194;-97.880;2023-05-23T07:13:33;11.43;;;5.95;;
38879;SDS011;25887;30.194;-97.880;2023-05-23T07:16:00;11.75;;;6.10;;
38879;SDS011;25887;30.194;-97.880;2023-05-23T07:18:26;10.43;;;5.60;;
38879;SDS011;25887;30.194;-97.880;2023-05-23T07:20:53;10.02;;;5.32;;
38879;SDS011;25887;30.194;-97.880;2023-05-23T07:23:21;10.05;;;5.50;;
38879;SDS011;25887;30.194;-97.880;2023-05-23T07:25:50;11.43;;;6.00;;
38879;SDS011;25887;30.194;-97.880;2023-05-23T07:28:18;9.70;;;5.35;;
38879;SDS011;25887;30.194;-97.880;2023-05-23T07:30:44;10.95;;;5.65;;
38879;SDS011;25887;30.194;-97.880;2023-05-23T07:33:11;10.45;;;5.57;;
38879;SDS011;25887;30.194;-97.880;2023-05-23T07:35:37;10.00;;;5.80;;
38879;SDS011;25887;30.194;-97.880;2023-05-23T07:38:03;16.05;;;5.53;;
38879;SDS011;25887;30.194;-97.880;2023-05-23T07:40:29;11.00;;;5.70;;
38879;SDS011;25887;30.194;-97.880;2023-05-23T07:42:55;10.82;;;5.30;;
38879;SDS011;25887;30.194;-97.880;2023-05-23T07:45:21;10.20;;;5.85;;
38879;SDS011;25887;30.194;-97.880;2023-05-23T07:47:47;12.85;;;6.15;;
38879;SDS011;25887;30.194;-97.880;2023-05-23T07:50:14;11.20;;;5.18;;
38879;SDS011;25887;30.194;-97.880;2023-05-23T07:52:40;14.10;;;6.10;;
38879;SDS011;25887;30.194;-97.880;2023-05-23T07:55:06;11.65;;;6.30;;
38879;SDS011;25887;30.194;-97.880;2023-05-23T07:57:33;11.80;;;5.68;;
38879;SDS011;25887;30.194;-97.880;2023-05-23T07:59:59;11.80;;;6.28;;
38879;SDS011;25887;30.194;-97.880;2023-05-23T08:02:26;11.10;;;5.30;;
38879;SDS011;25887;30.194;-97.880;2023-05-23T08:04:52;13.38;;;6.40;;
38879;SDS011;25887;30.194;-97.880;2023-05-23T08:07:18;12.25;;;5.90;;
38879;SDS011;25887;30.194;-97.880;2023-05-23T08:09:46;12.20;;;6.00;;
38879;SDS011;25887;30.194;-97.880;2023-05-23T08:12:12;12.32;;;5.55;;
38879;SDS011;25887;30.194;-97.880;2023-05-23T08:14:39;13.63;;;6.32;;
38879;SDS011;25887;30.194;-97.880;2023-05-23T08:17:05;12.15;;;6.05;;
38879;SDS011;25887;30.194;-97.880;2023-05-23T08:19:31;11.60;;;5.90;;
38879;SDS011;25887;30.194;-97.880;2023-05-23T08:21:57;12.48;;;6.07;;
38879;SDS011;25887;30.194;-97.880;2023-05-23T08:24:25;14.90;;;6.05;;
38879;SDS011;25887;30.194;-97.880;2023-05-23T08:26:51;11.88;;;6.15;;
38879;SDS011;25887;30.194;-97.880;2023-05-23T08:29:17;11.93;;;6.43;;
38879;SDS011;25887;30.194;-97.880;2023-05-23T08:31:43;14.63;;;6.72;;
38879;SDS011;25887;30.194;-97.880;2023-05-23T08:34:09;13.45;;;5.95;;
38879;SDS011;25887;30.194;-97.880;2023-05-23T08:36:38;12.57;;;5.75;;
38879;SDS011;25887;30.194;-97.880;2023-05-23T08:39:06;12.27;;;6.32;;
38879;SDS011;25887;30.194;-97.880;2023-05-23T08:41:33;11.63;;;6.32;;
38879;SDS011;25887;30.194;-97.880;2023-05-23T08:43:59;11.43;;;6.07;;
38879;SDS011;25887;30.194;-97.880;2023-05-23T08:46:26;12.38;;;6.95;;
38879;SDS011;25887;30.194;-97.880;2023-05-23T08:48:53;12.52;;;6.43;;
38879;SDS011;25887;30.194;-97.880;2023-05-23T08:51:22;13.00;;;6.65;;
38879;SDS011;25887;30.194;-97.880;2023-05-23T08:53:50;11.88;;;5.72;;
38879;SDS011;25887;30.194;-97.880;2023-05-23T08:56:18;12.70;;;6.60;;
38879;SDS011;25887;30.194;-97.880;2023-05-23T08:58:44;11.57;;;6.40;;
38879;SDS011;25887;30.194;-97.880;2023-05-23T09:01:13;11.90;;;6.18;;
38879;SDS011;25887;30.194;-97.880;2023-05-23T09:03:42;12.20;;;6.70;;
38879;SDS011;25887;30.194;-97.880;2023-05-23T09:06:09;16.15;;;7.05;;
38879;SDS011;25887;30.194;-97.880;2023-05-23T09:08:36;13.02;;;7.32;;
38879;SDS011;25887;30.194;-97.880;2023-05-23T09:11:02;13.90;;;7.25;;
38879;SDS011;25887;30.194;-97.880;2023-05-23T09:13:31;13.52;;;6.35;;
38879;SDS011;25887;30.194;-97.880;2023-05-23T09:18:25;12.82;;;6.95;;
38879;SDS011;25887;30.194;-97.880;2023-05-23T09:20:52;11.10;;;6.10;;
38879;SDS011;25887;30.194;-97.880;2023-05-23T09:23:18;14.48;;;6.97;;
38879;SDS011;25887;30.194;-97.880;2023-05-23T09:25:45;15.30;;;6.85;;
38879;SDS011;25887;30.194;-97.880;2023-05-23T09:28:12;12.75;;;6.93;;
38879;SDS011;25887;30.194;-97.880;2023-05-23T09:30:38;14.60;;;6.35;;
38879;SDS011;25887;30.194;-97.880;2023-05-23T09:33:05;14.30;;;7.07;;
38879;SDS011;25887;30.194;-97.880;2023-05-23T09:35:31;13.68;;;7.20;;
38879;SDS011;25887;30.194;-97.880;2023-05-23T09:37:57;12.57;;;7.22;;
38879;SDS011;25887;30.194;-97.880;2023-05-23T09:40:28;13.65;;;7.13;;
38879;SDS011;25887;30.194;-97.880;2023-05-23T09:43:04;11.18;;;6.03;;
38879;SDS011;25887;30.194;-97.880;2023-05-23T09:45:32;15.45;;;7.28;;
38879;SDS011;25887;30.194;-97.880;2023-05-23T09:47:58;13.40;;;6.82;;
38879;SDS011;25887;30.194;-97.880;2023-05-23T09:50:29;11.82;;;6.53;;
38879;SDS011;25887;30.194;-97.880;2023-05-23T09:53:00;11.48;;;6.30;;
38879;SDS011;25887;30.194;-97.880;2023-05-23T09:55:26;16.13;;;6.40;;
38879;SDS011;25887;30.194;-97.880;2023-05-23T09:57:53;14.13;;;7.28;;
38879;SDS011;25887;30.194;-97.880;2023-05-23T10:00:22;13.80;;;7.15;;
38879;SDS011;25887;30.194;-97.880;2023-05-23T10:08:39;12.07;;;7.15;;
38879;SDS011;25887;30.194;-97.880;2023-05-23T10:13:43;14.40;;;7.40;;
38879;SDS011;25887;30.194;-97.880;2023-05-23T10:18:43;13.30;;;6.10;;
38879;SDS011;25887;30.194;-97.880;2023-05-23T10:21:17;13.48;;;6.28;;
38879;SDS011;25887;30.194;-97.880;2023-05-23T10:23:48;15.48;;;7.30;;
38879;SDS011;25887;30.194;-97.880;2023-05-23T10:26:16;15.75;;;6.90;;
38879;SDS011;25887;30.194;-97.880;2023-05-23T10:28:43;16.17;;;7.13;;
38879;SDS011;25887;30.194;-97.880;2023-05-23T10:31:12;10.85;;;6.40;;
38879;SDS011;25887;30.194;-97.880;2023-05-23T10:33:40;17.15;;;7.38;;
38879;SDS011;25887;30.194;-97.880;2023-05-23T10:36:21;14.00;;;6.72;;
38879;SDS011;25887;30.194;-97.880;2023-05-23T10:41:27;11.98;;;6.50;;
38879;SDS011;25887;30.194;-97.880;2023-05-23T10:44:22;12.93;;;6.38;;
38879;SDS011;25887;30.194;-97.880;2023-05-23T10:46:52;17.85;;;6.57;;
38879;SDS011;25887;30.194;-97.880;2023-05-23T10:49:21;14.73;;;6.60;;
38879;SDS011;25887;30.194;-97.880;2023-05-23T10:52:12;10.68;;;6.05;;
38879;SDS011;25887;30.194;-97.880;2023-05-23T10:54:44;13.38;;;6.40;;
38879;SDS011;25887;30.194;-97.880;2023-05-23T10:57:16;16.90;;;6.50;;
38879;SDS011;25887;30.194;-97.880;2023-05-23T10:59:45;11.98;;;6.55;;
38879;SDS011;25887;30.194;-97.880;2023-05-23T11:02:15;14.27;;;6.70;;
38879;SDS011;25887;30.194;-97.880;2023-05-23T11:05:16;11.48;;;6.20;;
38879;SDS011;25887;30.194;-97.880;2023-05-23T11:07:39;12.27;;;6.88;;
38879;SDS011;25887;30.194;-97.880;2023-05-23T11:10:09;12.98;;;6.72;;
38879;SDS011;25887;30.194;-97.880;2023-05-23T11:12:37;12.85;;;7.28;;
38879;SDS011;25887;30.194;-97.880;2023-05-23T11:17:53;13.18;;;6.60;;
38879;SDS011;25887;30.194;-97.880;2023-05-23T11:20:22;12.43;;;5.90;;
38879;SDS011;25887;30.194;-97.880;2023-05-23T11:23:01;14.68;;;6.65;;
38879;SDS011;25887;30.194;-97.880;2023-05-23T11:25:44;12.65;;;6.63;;
38879;SDS011;25887;30.194;-97.880;2023-05-23T11:28:14;12.25;;;6.47;;
38879;SDS011;25887;30.194;-97.880;2023-05-23T11:30:41;12.32;;;6.75;;
38879;SDS011;25887;30.194;-97.880;2023-05-23T11:33:17;14.00;;;6.63;;
38879;SDS011;25887;30.194;-97.880;2023-05-23T11:36:05;10.35;;;6.13;;
38879;SDS011;25887;30.194;-97.880;2023-05-23T11:38:31;11.98;;;6.32;;
38879;SDS011;25887;30.194;-97.880;2023-05-23T11:40:58;12.82;;;6.60;;
38879;SDS011;25887;30.194;-97.880;2023-05-23T11:43:25;12.85;;;6.72;;
38879;SDS011;25887;30.194;-97.880;2023-05-23T11:45:51;15.07;;;6.25;;
38879;SDS011;25887;30.194;-97.880;2023-05-23T11:48:17;11.85;;;6.47;;
38879;SDS011;25887;30.194;-97.880;2023-05-23T11:50:44;15.02;;;7.65;;
38879;SDS011;25887;30.194;-97.880;2023-05-23T11:53:12;13.35;;;7.22;;
38879;SDS011;25887;30.194;-97.880;2023-05-23T11:55:54;13.43;;;6.35;;
38879;SDS011;25887;30.194;-97.880;2023-05-23T11:58:36;13.90;;;7.03;;
38879;SDS011;25887;30.194;-97.880;2023-05-23T12:01:06;14.25;;;7.18;;
38879;SDS011;25887;30.194;-97.880;2023-05-23T12:03:35;13.52;;;7.05;;
38879;SDS011;25887;30.194;-97.880;2023-05-23T12:06:13;16.05;;;7.47;;
38879;SDS011;25887;30.194;-97.880;2023-05-23T12:14:56;12.25;;;6.32;;
38879;SDS011;25887;30.194;-97.880;2023-05-23T12:17:24;13.35;;;6.43;;
38879;SDS011;25887;30.194;-97.880;2023-05-23T12:19:51;15.25;;;6.55;;
38879;SDS011;25887;30.194;-97.880;2023-05-23T12:22:24;13.07;;;6.28;;
38879;SDS011;25887;30.194;-97.880;2023-05-23T12:24:54;11.32;;;6.40;;
38879;SDS011;25887;30.194;-97.880;2023-05-23T12:27:28;10.40;;;5.97;;
38879;SDS011;25887;30.194;-97.880;2023-05-23T12:30:09;12.90;;;6.95;;
38879;SDS011;25887;30.194;-97.880;2023-05-23T12:32:40;14.10;;;6.50;;
38879;SDS011;25887;30.194;-97.880;2023-05-23T12:35:10;11.85;;;6.65;;
38879;SDS011;25887;30.194;-97.880;2023-05-23T12:37:38;12.55;;;6.18;;
38879;SDS011;25887;30.194;-97.880;2023-05-23T12:42:45;12.38;;;6.32;;
38879;SDS011;25887;30.194;-97.880;2023-05-23T12:45:33;12.45;;;6.40;;
38879;SDS011;25887;30.194;-97.880;2023-05-23T12:48:04;13.35;;;6.88;;
38879;SDS011;25887;30.194;-97.880;2023-05-23T12:50:31;14.90;;;6.47;;
38879;SDS011;25887;30.194;-97.880;2023-05-23T12:52:58;15.27;;;7.45;;
38879;SDS011;25887;30.194;-97.880;2023-05-23T12:55:24;12.82;;;7.55;;
38879;SDS011;25887;30.194;-97.880;2023-05-23T12:57:50;17.85;;;7.68;;
38879;SDS011;25887;30.194;-97.880;2023-05-23T13:00:16;12.98;;;6.70;;
38879;SDS011;25887;30.194;-97.880;2023-05-23T13:02:43;12.85;;;7.03;;
38879;SDS011;25887;30.194;-97.880;2023-05-23T13:05:10;14.23;;;7.75;;
38879;SDS011;25887;30.194;-97.880;2023-05-23T13:07:37;14.25;;;7.15;;
38879;SDS011;25887;30.194;-97.880;2023-05-23T13:10:03;12.48;;;6.82;;
38879;SDS011;25887;30.194;-97.880;2023-05-23T13:12:29;17.48;;;7.97;;
38879;SDS011;25887;30.194;-97.880;2023-05-23T13:14:57;14.55;;;7.35;;
38879;SDS011;25887;30.194;-97.880;2023-05-23T13:17:23;16.02;;;7.60;;
38879;SDS011;25887;30.194;-97.880;2023-05-23T13:19:49;13.35;;;7.35;;
38879;SDS011;25887;30.194;-97.880;2023-05-23T13:22:16;19.58;;;8.55;;
38879;SDS011;25887;30.194;-97.880;2023-05-23T13:24:42;14.43;;;7.35;;
38879;SDS011;25887;30.194;-97.880;2023-05-23T13:27:08;14.07;;;6.65;;
38879;SDS011;25887;30.194;-97.880;2023-05-23T13:29:35;17.65;;;7.68;;
38879;SDS011;25887;30.194;-97.880;2023-05-23T13:32:01;14.93;;;6.82;;
38879;SDS011;25887;30.194;-97.880;2023-05-23T13:34:27;14.27;;;6.85;;
38879;SDS011;25887;30.194;-97.880;2023-05-23T13:36:53;14.25;;;7.22;;
38879;SDS011;25887;30.194;-97.880;2023-05-23T13:39:20;15.15;;;6.75;;
38879;SDS011;25887;30.194;-97.880;2023-05-23T13:41:47;11.77;;;6.65;;
38879;SDS011;25887;30.194;-97.880;2023-05-23T13:44:14;14.45;;;7.43;;
38879;SDS011;25887;30.194;-97.880;2023-05-23T13:46:41;14.05;;;7.63;;
38879;SDS011;25887;30.194;-97.880;2023-05-23T13:49:08;23.85;;;8.05;;
38879;SDS011;25887;30.194;-97.880;2023-05-23T13:51:34;14.88;;;6.63;;
38879;SDS011;25887;30.194;-97.880;2023-05-23T13:54:02;14.40;;;7.30;;
38879;SDS011;25887;30.194;-97.880;2023-05-23T13:56:29;12.45;;;6.80;;
38879;SDS011;25887;30.194;-97.880;2023-05-23T13:58:55;13.65;;;6.70;;
38879;SDS011;25887;30.194;-97.880;2023-05-23T14:01:21;11.55;;;6.78;;
38879;SDS011;25887;30.194;-97.880;2023-05-23T14:03:50;18.75;;;7.40;;
38879;SDS011;25887;30.194;-97.880;2023-05-23T14:06:16;12.02;;;6.50;;
38879;SDS011;25887;30.194;-97.880;2023-05-23T14:08:44;13.18;;;6.93;;
38879;SDS011;25887;30.194;-97.880;2023-05-23T14:11:10;14.85;;;6.65;;
38879;SDS011;25887;30.194;-97.880;2023-05-23T14:13:36;13.30;;;7.03;;
38879;SDS011;25887;30.194;-97.880;2023-05-23T14:16:02;11.13;;;6.90;;
38879;SDS011;25887;30.194;-97.880;2023-05-23T14:18:32;12.00;;;6.72;;
38879;SDS011;25887;30.194;-97.880;2023-05-23T14:20:58;14.02;;;7.25;;
38879;SDS011;25887;30.194;-97.880;2023-05-23T14:23:24;10.90;;;6.70;;
38879;SDS011;25887;30.194;-97.880;2023-05-23T14:25:50;13.30;;;6.88;;
38879;SDS011;25887;30.194;-97.880;2023-05-23T14:28:16;13.65;;;7.38;;
38879;SDS011;25887;30.194;-97.880;2023-05-23T14:30:43;12.98;;;7.43;;
38879;SDS011;25887;30.194;-97.880;2023-05-23T14:33:09;14.90;;;7.95;;
38879;SDS011;25887;30.194;-97.880;2023-05-23T14:35:35;14.18;;;7.65;;
38879;SDS011;25887;30.194;-97.880;2023-05-23T14:38:01;12.07;;;6.88;;
38879;SDS011;25887;30.194;-97.880;2023-05-23T14:40:27;13.52;;;7.53;;
38879;SDS011;25887;30.194;-97.880;2023-05-23T14:42:53;12.48;;;7.20;;
38879;SDS011;25887;30.194;-97.880;2023-05-23T14:45:20;12.48;;;7.25;;
38879;SDS011;25887;30.194;-97.880;2023-05-23T14:47:46;12.40;;;6.90;;
38879;SDS011;25887;30.194;-97.880;2023-05-23T14:50:12;11.10;;;6.90;;
38879;SDS011;25887;30.194;-97.880;2023-05-23T14:52:40;11.60;;;7.35;;
38879;SDS011;25887;30.194;-97.880;2023-05-23T14:55:06;12.55;;;7.20;;
38879;SDS011;25887;30.194;-97.880;2023-05-23T14:57:33;13.68;;;7.53;;
38879;SDS011;25887;30.194;-97.880;2023-05-23T14:59:59;13.48;;;7.63;;
38879;SDS011;25887;30.194;-97.880;2023-05-23T15:02:29;14.30;;;7.57;;
38879;SDS011;25887;30.194;-97.880;2023-05-23T15:04:56;15.73;;;7.05;;